Time;durP1;ratioP1;P1;durP2;ratioP2;P2;SDS_P1;SDS_P2;PMS_P1;PMS_P2;Temp;Humidity;BMP_temperature;BMP_pressure;BME280_temperature;BME280_humidity;BME280_pressure;Samples;Min_cycle;Max_cycle;Signal;HPM_P1;HPM_P2
2021/06/29 00:01:03;;;;;;;;;;;;;;;25.41;53.20;100725.58;1771577;80;20230;-71
2021/06/29 00:03:29;;;;;;;;;;;;;;;25.43;53.24;100725.20;1723116;81;20211;-71
2021/06/29 00:05:55;;;;;;;;;;;;;;;25.42;53.28;100724.39;1723427;81;21864;-71
2021/06/29 00:08:21;;;;;;;;;;;;;;;25.43;53.33;100726.59;1769835;79;20206;-70
2021/06/29 00:10:47;;;;;;;;;;;;;;;25.42;53.37;100727.17;1789710;78;20176;-71
2021/06/29 00:13:14;;;;;;;;;;;;;;;25.43;53.40;100723.81;1780974;79;20433;-70
2021/06/29 00:15:40;;;;;;;;;;;;;;;25.43;53.43;100721.84;1788860;79;20223;-71
2021/06/29 00:18:06;;;;;;;;;;;;;;;25.43;53.49;100727.41;1783154;79;21177;-71
2021/06/29 00:20:32;;;;;;;;;;;;;;;25.44;53.50;100724.05;1772069;79;20516;-72
2021/06/29 00:22:57;;;;;;;;;;;;;;;25.43;53.53;100724.63;1768893;79;20173;-71
2021/06/29 00:25:23;;;;;;;;;;;;;;;25.43;53.57;100723.23;1747869;80;20240;-71
2021/06/29 00:27:49;;;;;;;;;;;;;;;25.43;53.62;100717.66;1749162;80;20165;-71
2021/06/29 00:30:15;;;;;;;;;;;;;;;25.45;53.62;100720.92;1748539;80;21183;-71
2021/06/29 00:32:41;;;;;;;;;;;;;;;25.45;53.66;100727.89;1716698;81;20168;-71
2021/06/29 00:35:08;;;;;;;;;;;;;;;25.45;53.70;100725.10;1774202;79;20293;-71
2021/06/29 00:37:34;;;;;;;;;;;;;;;25.46;53.71;100723.12;1750129;80;20241;-72
2021/06/29 00:40:00;;;;;;;;;;;;;;;25.46;53.75;100725.30;1728355;81;20840;-72
2021/06/29 00:42:25;;;;;;;;;;;;;;;25.46;53.78;100720.34;1728560;82;21996;-71
2021/06/29 00:44:51;;;;;;;;;;;;;;;25.46;53.79;100719.73;1715422;81;20182;-71
2021/06/29 00:47:17;;;;;;;;;;;;;;;25.45;53.82;100718.14;1718142;82;20219;-72
2021/06/29 00:49:43;;;;;;;;;;;;;;;25.46;53.85;100720.34;1705181;82;20206;-71
2021/06/29 00:52:13;;;;;;;;;;;;;;;25.47;53.88;100725.55;1713258;82;20200;-72
2021/06/29 00:54:39;;;;;;;;;;;;;;;25.47;53.90;100716.38;1706005;82;21059;-70
2021/06/29 00:57:07;;;;;;;;;;;;;;;25.47;53.94;100718.58;1710168;82;20126;-72
2021/06/29 00:59:33;;;;;;;;;;;;;;;25.48;53.94;100719.39;1761377;80;21067;-72
2021/06/29 01:01:59;;;;;;;;;;;;;;;25.48;53.99;100721.60;1760999;79;20175;-72
2021/06/29 01:04:25;;;;;;;;;;;;;;;25.48;54.01;100720.20;1754567;80;20195;-71
2021/06/29 01:06:51;;;;;;;;;;;;;;;25.49;54.03;100714.06;1759255;80;21113;-72
2021/06/29 01:09:18;;;;;;;;;;;;;;;25.48;54.07;100714.63;1756220;80;20805;-70
2021/06/29 01:11:45;;;;;;;;;;;;;;;25.48;54.08;100717.42;1752656;80;20165;-72
2021/06/29 01:14:15;;;;;;;;;;;;;;;25.48;54.12;100703.50;1714574;82;20131;-72
2021/06/29 01:16:41;;;;;;;;;;;;;;;25.50;54.15;100710.70;1752267;80;20173;-71
2021/06/29 01:19:07;;;;;;;;;;;;;;;25.50;54.16;100700.94;1757848;80;21225;-70
2021/06/29 01:21:39;;;;;;;;;;;;;;;25.50;54.19;100701.76;1750927;80;20142;-72
2021/06/29 01:24:07;;;;;;;;;;;;;;;25.50;54.22;100707.33;1753451;80;20458;-71
2021/06/29 01:26:35;;;;;;;;;;;;;;;25.50;54.27;100711.51;1739643;81;20587;-71
2021/06/29 01:29:05;;;;;;;;;;;;;;;25.51;54.29;100706.72;1754188;80;20431;-72
2021/06/29 01:31:31;;;;;;;;;;;;;;;25.51;54.29;100708.11;1748152;80;22451;-72
2021/06/29 01:33:57;;;;;;;;;;;;;;;25.51;54.35;100713.69;1752811;80;20393;-71
2021/06/29 01:36:25;;;;;;;;;;;;;;;25.51;54.36;100702.55;1751968;80;20216;-71
2021/06/29 01:38:51;;;;;;;;;;;;;;;25.51;54.39;100696.97;1750080;80;20788;-71
2021/06/29 01:41:24;;;;;;;;;;;;;;;25.51;54.42;100697.78;1756662;81;20145;-71
2021/06/29 01:43:55;;;;;;;;;;;;;;;25.52;54.46;100699.99;1749737;80;21268;-71
2021/06/29 01:46:20;;;;;;;;;;;;;;;25.52;54.50;100697.20;1736033;81;20249;-71
2021/06/29 01:48:54;;;;;;;;;;;;;;;25.53;54.53;100698.84;1716393;82;20141;-72
2021/06/29 01:51:20;;;;;;;;;;;;;;;25.53;54.53;100697.45;1723074;82;20136;-72
2021/06/29 01:53:48;;;;;;;;;;;;;;;25.54;54.57;100701.89;1715507;82;20447;-71
2021/06/29 01:56:14;;;;;;;;;;;;;;;25.53;54.59;100698.84;1713093;83;21023;-71
2021/06/29 01:58:52;;;;;;;;;;;;;;;25.53;54.63;100694.66;1716657;82;20311;-71
2021/06/29 02:01:17;;;;;;;;;;;;;;;25.53;54.67;100695.50;1717825;82;20401;-71
2021/06/29 02:03:43;;;;;;;;;;;;;;;25.54;54.67;100701.89;1723799;81;20225;-71
2021/06/29 02:06:09;;;;;;;;;;;;;;;25.54;54.71;100704.67;1731713;81;20245;-71
2021/06/29 02:08:35;;;;;;;;;;;;;;;25.53;54.76;100694.11;1722468;82;21041;-72
2021/06/29 02:11:01;;;;;;;;;;;;;;;25.54;54.78;100702.70;1725708;82;20384;-71
2021/06/29 02:13:27;;;;;;;;;;;;;;;25.55;54.82;100705.69;1718842;82;20185;-72
2021/06/29 02:15:55;;;;;;;;;;;;;;;25.54;54.85;100698.52;1726635;82;20142;-72
2021/06/29 02:18:21;;;;;;;;;;;;;;;25.54;54.89;100704.09;1720644;82;20325;-71
2021/06/29 02:20:48;;;;;;;;;;;;;;;25.55;54.89;100702.91;1714389;82;21156;-72
2021/06/29 02:23:15;;;;;;;;;;;;;;;25.55;54.95;100707.09;1713813;83;20166;-71
2021/06/29 02:25:40;;;;;;;;;;;;;;;25.55;54.97;100708.48;1716121;82;20133;-72
2021/06/29 02:28:06;;;;;;;;;;;;;;;25.55;55.01;100700.70;1718986;82;20166;-71
2021/06/29 02:30:33;;;;;;;;;;;;;;;25.55;55.03;100705.69;1719348;82;20513;-70
2021/06/29 02:32:58;;;;;;;;;;;;;;;25.56;55.05;100710.69;1713757;83;21121;-71
2021/06/29 02:35:24;;;;;;;;;;;;;;;25.55;55.09;100707.09;1719770;83;20747;-71
2021/06/29 02:37:50;;;;;;;;;;;;;;;25.55;55.11;100709.88;1717548;82;20424;-72
2021/06/29 02:40:16;;;;;;;;;;;;;;;25.57;55.14;100713.71;1711487;82;20549;-71
2021/06/29 02:42:42;;;;;;;;;;;;;;;25.56;55.18;100716.26;1717032;82;20182;-72
2021/06/29 02:45:08;;;;;;;;;;;;;;;25.56;55.20;100710.11;1716606;81;21059;-72
2021/06/29 02:47:36;;;;;;;;;;;;;;;25.56;55.23;100714.29;1729820;81;20160;-71
2021/06/29 02:50:04;;;;;;;;;;;;;;;25.57;55.24;100710.92;1729392;81;20522;-71
2021/06/29 02:52:32;;;;;;;;;;;;;;;25.57;55.29;100713.71;1731936;81;20129;-71
2021/06/29 02:54:58;;;;;;;;;;;;;;;25.58;55.33;100712.55;1729576;82;20171;-71
2021/06/29 02:57:24;;;;;;;;;;;;;;;25.57;55.34;100710.92;1730002;82;21060;-71
2021/06/29 02:59:50;;;;;;;;;;;;;;;25.57;55.39;100719.28;1731438;81;20170;-72
2021/06/29 03:02:15;;;;;;;;;;;;;;;25.58;55.41;100720.91;1733420;82;20739;-71
2021/06/29 03:04:41;;;;;;;;;;;;;;;25.58;55.42;100730.08;1731198;81;20903;-72
2021/06/29 03:07:07;;;;;;;;;;;;;;;25.58;55.46;100728.69;1727507;81;20253;-71
2021/06/29 03:09:33;;;;;;;;;;;;;;;25.59;55.50;100728.11;1731111;81;21130;-71
2021/06/29 03:11:59;;;;;;;;;;;;;;;25.60;55.54;100729.70;1730271;81;20776;-71
2021/06/29 03:14:25;;;;;;;;;;;;;;;25.59;55.57;100723.32;1733652;81;20193;-72
2021/06/29 03:16:52;;;;;;;;;;;;;;;25.61;55.59;100722.98;1729531;81;20490;-71
2021/06/29 03:19:19;;;;;;;;;;;;;;;25.59;55.64;100723.32;1729900;81;20140;-72
2021/06/29 03:21:45;;;;;;;;;;;;;;;25.60;55.67;100725.53;1731298;81;21151;-71
2021/06/29 03:24:11;;;;;;;;;;;;;;;25.61;55.68;100727.16;1730822;81;20140;-72
2021/06/29 03:26:37;;;;;;;;;;;;;;;25.60;55.73;100724.95;1732539;81;20280;-71
2021/06/29 03:29:04;;;;;;;;;;;;;;;25.60;55.77;100720.77;1727341;81;20181;-72
2021/06/29 03:31:34;;;;;;;;;;;;;;;25.60;55.78;100730.52;1728693;81;20168;-71
2021/06/29 03:34:00;;;;;;;;;;;;;;;25.61;55.80;100727.16;1732701;81;21928;-71
2021/06/29 03:36:26;;;;;;;;;;;;;;;25.61;55.83;100732.73;1730316;81;20297;-71
2021/06/29 03:38:51;;;;;;;;;;;;;;;25.61;55.86;100733.55;1727672;81;21009;-71
2021/06/29 03:41:17;;;;;;;;;;;;;;;25.62;55.89;100740.75;1730471;81;20576;-72
2021/06/29 03:43:43;;;;;;;;;;;;;;;25.61;55.91;100737.73;1732883;81;20204;-72
2021/06/29 03:46:09;;;;;;;;;;;;;;;25.61;55.93;100740.52;1738189;80;21177;-72
2021/06/29 03:48:35;;;;;;;;;;;;;;;25.62;55.96;100739.36;1750738;79;20459;-71
2021/06/29 03:51:01;;;;;;;;;;;;;;;25.61;56.00;100739.12;1751279;80;20306;-71
2021/06/29 03:53:27;;;;;;;;;;;;;;;25.61;56.04;100743.88;1748985;80;20177;-71
2021/06/29 03:55:52;;;;;;;;;;;;;;;25.62;56.05;100739.94;1748601;80;20194;-71
2021/06/29 03:58:18;;;;;;;;;;;;;;;25.62;56.08;100741.33;1750186;80;20917;-72
2021/06/29 04:00:45;;;;;;;;;;;;;;;25.62;56.09;100745.50;1740694;80;20205;-71
2021/06/29 04:03:10;;;;;;;;;;;;;;;25.61;56.12;100743.30;1753692;80;20209;-71
2021/06/29 04:05:36;;;;;;;;;;;;;;;25.62;56.17;100741.33;1731235;81;20707;-71
2021/06/29 04:08:03;;;;;;;;;;;;;;;25.63;56.17;100744.34;1736784;82;20795;-71
2021/06/29 04:10:29;;;;;;;;;;;;;;;25.62;56.22;100741.33;1723167;82;21234;-68
2021/06/29 04:12:55;;;;;;;;;;;;;;;25.62;56.24;100738.55;1753441;80;21265;-69
2021/06/29 04:15:21;;;;;;;;;;;;;;;25.62;56.28;100735.17;1748088;80;20244;-69
2021/06/29 04:17:47;;;;;;;;;;;;;;;25.62;56.29;100739.36;1748068;80;20145;-68
2021/06/29 04:20:13;;;;;;;;;;;;;;;25.63;56.30;100733.20;1750265;80;20256;-69
2021/06/29 04:22:39;;;;;;;;;;;;;;;25.62;56.32;100735.75;1750965;80;21174;-69
2021/06/29 04:25:06;;;;;;;;;;;;;;;25.62;56.35;100735.75;1746201;80;20941;-68
2021/06/29 04:27:32;;;;;;;;;;;;;;;25.61;56.37;100729.37;1747467;80;20982;-69
2021/06/29 04:29:58;;;;;;;;;;;;;;;25.64;56.40;100732.02;1750591;80;20835;-69
2021/06/29 04:32:24;;;;;;;;;;;;;;;25.62;56.43;100730.18;1747493;80;20272;-69
2021/06/29 04:35:09;;;;;;;;;;;;;;;25.62;56.44;100726.81;1746044;80;21198;-69
2021/06/29 04:37:55;;;;;;;;;;;;;;;25.63;56.45;100731.81;1736398;80;20594;-68
2021/06/29 04:40:39;;;;;;;;;;;;;;;25.63;56.50;100726.23;1744186;80;20427;-70
2021/06/29 04:43:15;;;;;;;;;;;;;;;25.62;56.58;100724.03;1752641;80;20550;-70
2021/06/29 04:45:41;;;;;;;;;;;;;;;25.63;56.59;100722.06;1747140;80;20208;-70
2021/06/29 04:48:07;;;;;;;;;;;;;;;25.64;56.66;100718.90;1749233;81;21057;-68
2021/06/29 04:50:34;;;;;;;;;;;;;;;25.63;56.68;100727.02;1747951;81;20178;-72
2021/06/29 04:53:00;;;;;;;;;;;;;;;25.64;56.70;100719.48;1752909;80;20222;-70
2021/06/29 04:55:26;;;;;;;;;;;;;;;25.64;56.73;100720.88;1743481;82;20165;-74
2021/06/29 04:57:52;;;;;;;;;;;;;;;25.64;56.75;100724.47;1733861;81;20236;-73
2021/06/29 05:00:19;;;;;;;;;;;;;;;25.64;56.77;100717.50;1734226;82;21105;-72
2021/06/29 05:02:45;;;;;;;;;;;;;;;25.64;56.80;100726.44;1732096;82;20150;-73
2021/06/29 05:05:12;;;;;;;;;;;;;;;25.64;56.82;100717.50;1733846;81;20265;-71
2021/06/29 05:07:38;;;;;;;;;;;;;;;25.64;56.83;100719.48;1728001;81;20232;-69
2021/06/29 05:10:06;;;;;;;;;;;;;;;25.65;56.84;100727.50;1728146;82;20139;-68
2021/06/29 05:12:32;;;;;;;;;;;;;;;25.65;56.87;100735.85;1730711;81;21078;-71
2021/06/29 05:14:57;;;;;;;;;;;;;;;25.65;56.88;100731.67;1733488;82;20217;-70
2021/06/29 05:17:23;;;;;;;;;;;;;;;25.66;56.92;100737.48;1734972;82;20151;-70
2021/06/29 05:19:49;;;;;;;;;;;;;;;25.66;56.93;100739.45;1730255;82;20793;-70
2021/06/29 05:22:15;;;;;;;;;;;;;;;25.66;56.95;100731.09;1734980;82;20487;-72
2021/06/29 05:24:41;;;;;;;;;;;;;;;25.67;56.98;100729.94;1731687;82;21896;-71
2021/06/29 05:27:07;;;;;;;;;;;;;;;25.66;56.99;100726.34;1732399;81;20189;-71
2021/06/29 05:29:33;;;;;;;;;;;;;;;25.67;57.02;100728.55;1734961;81;20456;-72
2021/06/29 05:31:59;;;;;;;;;;;;;;;25.66;57.03;100726.91;1733343;81;20723;-72
2021/06/29 05:34:25;;;;;;;;;;;;;;;25.66;57.08;100721.34;1729626;82;20239;-73
2021/06/29 05:36:51;;;;;;;;;;;;;;;25.67;57.08;100725.18;1735432;82;21133;-73
2021/06/29 05:39:17;;;;;;;;;;;;;;;25.66;57.10;100721.34;1733297;81;20265;-72
2021/06/29 05:41:44;;;;;;;;;;;;;;;25.67;57.14;100722.97;1738336;82;20262;-68
2021/06/29 05:44:11;;;;;;;;;;;;;;;25.67;57.15;100725.76;1733707;82;20186;-72
2021/06/29 05:46:37;;;;;;;;;;;;;;;25.69;57.14;100728.41;1730496;82;20195;-69
2021/06/29 05:49:08;;;;;;;;;;;;;;;25.71;57.18;100730.27;1726435;82;21100;-71
2021/06/29 05:51:31;;;;;;;;;;;;;;;25.75;57.23;100728.97;1713261;81;20224;-67
2021/06/29 05:53:57;;;;;;;;;;;;;;;25.80;57.31;100734.30;1761173;80;20234;-71
2021/06/29 05:56:22;;;;;;;;;;;;;;;25.85;57.35;100738.20;1771028;80;20784;-70
2021/06/29 05:58:48;;;;;;;;;;;;;;;25.89;57.41;100735.75;1769870;79;20161;-71
2021/06/29 06:01:14;;;;;;;;;;;;;;;25.95;57.42;100741.89;1762253;79;21086;-71
2021/06/29 06:03:40;;;;;;;;;;;;;;;26.01;57.44;100748.03;1761392;79;20193;-72
2021/06/29 06:06:06;;;;;;;;;;;;;;;26.05;57.46;100742.78;1769807;79;20236;-72
2021/06/29 06:08:32;;;;;;;;;;;;;;;26.10;57.46;100745.28;1766381;79;20163;-72
2021/06/29 06:10:58;;;;;;;;;;;;;;;26.15;57.45;100745.03;1732726;81;20296;-71
2021/06/29 06:13:24;;;;;;;;;;;;;;;26.19;57.43;100743.73;1726876;82;21005;-70
2021/06/29 06:15:52;;;;;;;;;;;;;;;26.23;57.40;100747.45;1731431;81;20197;-71
2021/06/29 06:18:17;;;;;;;;;;;;;;;26.25;57.34;100749.31;1706197;82;20245;-72
2021/06/29 06:20:43;;;;;;;;;;;;;;;26.25;57.31;100745.95;1719483;82;20178;-71
2021/06/29 06:23:09;;;;;;;;;;;;;;;26.25;57.28;100755.70;1723219;82;20168;-71
2021/06/29 06:25:35;;;;;;;;;;;;;;;26.25;57.26;100747.92;1723054;82;21159;-72
2021/06/29 06:28:03;;;;;;;;;;;;;;;26.25;57.23;100754.89;1725137;82;20400;-71
2021/06/29 06:30:29;;;;;;;;;;;;;;;26.23;57.21;100755.82;1738979;81;20193;-73
2021/06/29 06:32:55;;;;;;;;;;;;;;;26.21;57.22;100750.62;1733037;81;20236;-74
2021/06/29 06:35:21;;;;;;;;;;;;;;;26.20;57.20;100748.17;1735369;81;20142;-74
2021/06/29 06:37:47;;;;;;;;;;;;;;;26.18;57.21;100742.91;1698667;82;21084;-74
2021/06/29 06:40:13;;;;;;;;;;;;;;;26.16;57.19;100745.84;1712759;82;20245;-74
2021/06/29 06:42:39;;;;;;;;;;;;;;;26.13;57.19;100750.17;1720508;82;20448;-73
2021/06/29 06:45:06;;;;;;;;;;;;;;;26.12;57.19;100754.70;1770296;79;20693;-73
2021/06/29 06:47:32;;;;;;;;;;;;;;;26.10;57.21;100744.47;1738985;80;20671;-74
2021/06/29 06:49:59;;;;;;;;;;;;;;;26.07;57.22;100741.83;1730465;82;21066;-73
2021/06/29 06:52:25;;;;;;;;;;;;;;;26.06;57.23;100744.95;1730616;81;20760;-73
2021/06/29 06:54:51;;;;;;;;;;;;;;;26.04;57.27;100742.55;1730055;81;20193;-73
2021/06/29 06:57:17;;;;;;;;;;;;;;;26.01;57.27;100741.87;1726878;81;20177;-73
2021/06/29 06:59:43;;;;;;;;;;;;;;;25.99;57.31;100744.19;1730081;81;20194;-75
2021/06/29 07:02:18;;;;;;;;;;;;;;;25.98;57.32;100745.34;1731660;81;21020;-74
2021/06/29 07:04:42;;;;;;;;;;;;;;;25.96;57.36;100739.34;1722891;81;21254;-75
2021/06/29 07:07:09;;;;;;;;;;;;;;;25.95;57.40;100739.68;1727140;82;20131;-74
2021/06/29 07:09:35;;;;;;;;;;;;;;;25.93;57.42;100735.84;1727013;81;20191;-73
2021/06/29 07:12:01;;;;;;;;;;;;;;;25.93;57.46;100735.06;1727286;81;20446;-73
2021/06/29 07:14:27;;;;;;;;;;;;;;;25.91;57.50;100727.86;1728668;81;21130;-73
2021/06/29 07:16:53;;;;;;;;;;;;;;;25.91;57.51;100728.44;1724894;81;20252;-72
2021/06/29 07:19:19;;;;;;;;;;;;;;;25.90;57.52;100724.02;1726652;81;20418;-73
2021/06/29 07:21:45;;;;;;;;;;;;;;;25.89;57.55;100721.00;1731080;81;20458;-72
2021/06/29 07:24:11;;;;;;;;;;;;;;;25.89;57.57;100727.96;1730708;81;20182;-71
2021/06/29 07:26:37;;;;;;;;;;;;;;;25.88;57.59;100718.00;1725627;81;21099;-73
2021/06/29 07:29:03;;;;;;;;;;;;;;;25.88;57.62;100722.19;1727725;81;20271;-73
2021/06/29 07:31:30;;;;;;;;;;;;;;;25.87;57.64;100719.16;1726428;81;20199;-76
2021/06/29 07:33:56;;;;;;;;;;;;;;;25.88;57.66;100720.79;1728810;81;20210;-74
2021/06/29 07:36:22;;;;;;;;;;;;;;;25.86;57.71;100725.90;1729327;81;20295;-75
2021/06/29 07:38:48;;;;;;;;;;;;;;;25.86;57.71;100725.90;1726962;81;21090;-75
2021/06/29 07:41:15;;;;;;;;;;;;;;;25.86;57.73;100725.90;1724767;81;20195;-76
2021/06/29 07:43:41;;;;;;;;;;;;;;;25.85;57.75;100725.08;1722849;81;20410;-75
2021/06/29 07:46:06;;;;;;;;;;;;;;;25.85;57.79;100725.66;1725784;81;20708;-75
2021/06/29 07:48:33;;;;;;;;;;;;;;;25.85;57.80;100720.09;1732742;81;20182;-76
2021/06/29 07:50:59;;;;;;;;;;;;;;;25.85;57.81;100721.48;1730337;82;22182;-75
2021/06/29 07:53:25;;;;;;;;;;;;;;;25.84;57.85;100718.48;1730484;81;20156;-74
2021/06/29 07:55:50;;;;;;;;;;;;;;;25.84;57.87;100718.48;1732728;81;20215;-73
2021/06/29 07:58:17;;;;;;;;;;;;;;;25.85;57.88;100711.73;1731681;82;20209;-73
2021/06/29 08:00:43;;;;;;;;;;;;;;;25.84;57.91;100716.48;1731519;81;20210;-75
2021/06/29 08:03:10;;;;;;;;;;;;;;;25.85;57.94;100711.73;1712543;83;21806;-73
2021/06/29 08:05:36;;;;;;;;;;;;;;;25.84;57.96;100715.09;1716608;82;20211;-75
2021/06/29 08:08:05;;;;;;;;;;;;;;;25.84;57.96;100715.70;1715376;83;20187;-74
2021/06/29 08:10:30;;;;;;;;;;;;;;;25.85;57.98;100722.88;1727415;82;20509;-75
2021/06/29 08:12:56;;;;;;;;;;;;;;;25.84;58.01;100713.70;1722940;82;20183;-75
2021/06/29 08:15:22;;;;;;;;;;;;;;;25.84;58.01;100715.09;1738323;81;21033;-73
2021/06/29 08:17:48;;;;;;;;;;;;;;;25.84;58.05;100719.88;1737733;81;20775;-73
2021/06/29 08:20:15;;;;;;;;;;;;;;;25.85;58.06;100720.09;1739872;81;20131;-74
2021/06/29 08:22:41;;;;;;;;;;;;;;;25.85;58.07;100723.69;1734826;81;20170;-73
2021/06/29 08:25:08;;;;;;;;;;;;;;;25.85;58.08;100720.09;1738003;81;20206;-74
2021/06/29 08:27:34;;;;;;;;;;;;;;;25.86;58.10;100715.56;1738710;81;21046;-73
2021/06/29 08:30:00;;;;;;;;;;;;;;;25.86;58.13;100714.75;1736721;81;20498;-74
2021/06/29 08:32:26;;;;;;;;;;;;;;;25.86;58.13;100714.17;1729614;82;20707;-74
2021/06/29 08:34:53;;;;;;;;;;;;;;;25.87;58.16;100710.80;1730597;82;20201;-74
2021/06/29 08:37:22;;;;;;;;;;;;;;;25.87;58.16;100708.02;1732482;81;20135;-73
2021/06/29 08:39:48;;;;;;;;;;;;;;;25.87;58.18;100711.61;1729096;81;21052;-74
2021/06/29 08:42:19;;;;;;;;;;;;;;;25.87;58.19;100710.22;1728825;82;20189;-74
2021/06/29 08:44:45;;;;;;;;;;;;;;;25.86;58.19;100703.60;1730933;82;20166;-75
2021/06/29 08:47:11;;;;;;;;;;;;;;;25.93;58.21;100702.39;1730942;82;20462;-75
2021/06/29 08:49:37;;;;;;;;;;;;;;;25.96;58.26;100701.70;1726709;81;20201;-76
2021/06/29 08:52:05;;;;;;;;;;;;;;;25.99;58.33;100700.98;1738398;81;21981;-75
2021/06/29 08:54:31;;;;;;;;;;;;;;;26.03;58.37;100703.86;1760048;79;20204;-73
2021/06/29 08:56:58;;;;;;;;;;;;;;;26.08;58.41;100697.45;1766135;79;20264;-74
2021/06/29 08:59:24;;;;;;;;;;;;;;;26.14;58.45;100691.81;1763271;79;20177;-75
2021/06/29 09:01:50;;;;;;;;;;;;;;;26.20;58.47;100683.45;1761708;79;20208;-75
2021/06/29 09:04:37;;;;;;;;;;;;;;;26.25;58.47;100681.80;1736743;81;21084;-75
2021/06/29 09:07:22;;;;;;;;;;;;;;;26.32;58.46;100681.16;1707538;81;20254;-75
2021/06/29 09:09:50;;;;;;;;;;;;;;;26.38;58.45;100674.16;1721903;81;20448;-70
2021/06/29 09:12:37;;;;;;;;;;;;;;;26.42;58.40;100675.63;1726614;82;20230;-74
2021/06/29 09:15:40;;;;;;;;;;;;;;;26.45;58.41;100673.51;1766614;79;20190;-71
2021/06/29 09:18:09;;;;;;;;;;;;;;;26.47;58.35;100676.18;1742287;81;21139;-72
2021/06/29 09:20:47;;;;;;;;;;;;;;;26.49;58.27;100680.80;1734694;81;20146;-73
2021/06/29 09:23:24;;;;;;;;;;;;;;;26.50;58.23;100687.19;1755988;80;20220;-73
2021/06/29 09:25:57;;;;;;;;;;;;;;;26.47;58.19;100683.73;1755554;80;20403;-73
2021/06/29 09:28:31;;;;;;;;;;;;;;;26.47;58.17;100679.55;1760651;80;20192;-73
2021/06/29 09:31:01;;;;;;;;;;;;;;;26.46;58.16;100683.51;1725739;81;21983;-73
2021/06/29 09:33:31;;;;;;;;;;;;;;;26.44;58.16;100684.47;1702502;82;20225;-73
2021/06/29 09:35:57;;;;;;;;;;;;;;;26.42;58.18;100685.40;1705778;82;20169;-73
2021/06/29 09:38:31;;;;;;;;;;;;;;;26.41;58.20;100682.38;1705947;82;20497;-73
2021/06/29 09:41:07;;;;;;;;;;;;;;;26.39;58.22;100677.76;1714501;82;20135;-74
2021/06/29 09:43:36;;;;;;;;;;;;;;;26.38;58.23;100683.11;1717667;82;21121;-73
2021/06/29 09:46:02;;;;;;;;;;;;;;;26.36;58.24;100684.84;1731550;81;20244;-73
2021/06/29 09:48:30;;;;;;;;;;;;;;;26.34;58.29;100670.47;1762843;80;20125;-73
2021/06/29 09:51:01;;;;;;;;;;;;;;;26.34;58.31;100663.50;1768725;79;20152;-72
2021/06/29 09:53:27;;;;;;;;;;;;;;;26.32;58.34;100668.03;1768684;79;20133;-71
2021/06/29 09:55:55;;;;;;;;;;;;;;;26.30;58.38;100662.02;1768733;79;21001;-72
2021/06/29 09:58:22;;;;;;;;;;;;;;;26.29;58.42;100667.36;1771870;79;20186;-72
2021/06/29 10:00:50;;;;;;;;;;;;;;;26.29;58.46;100666.55;1747952;81;20103;-72
2021/06/29 10:03:23;;;;;;;;;;;;;;;26.27;58.50;100662.71;1758059;80;20295;-72
2021/06/29 10:05:51;;;;;;;;;;;;;;;26.26;58.52;100665.30;1722407;82;20184;-73
2021/06/29 10:08:29;;;;;;;;;;;;;;;26.26;58.60;100656.12;1753840;80;21146;-73
2021/06/29 10:11:16;;;;;;;;;;;;;;;26.25;58.65;100657.28;1742154;81;21041;-73
2021/06/29 10:13:51;;;;;;;;;;;;;;;26.23;58.70;100654.84;1735491;81;20187;-73
2021/06/29 10:16:21;;;;;;;;;;;;;;;26.24;58.75;100654.27;1740469;81;20202;-73
2021/06/29 10:18:51;;;;;;;;;;;;;;;26.23;58.78;100657.63;1737979;81;20205;-71
2021/06/29 10:21:22;;;;;;;;;;;;;;;26.23;58.79;100656.81;1722283;82;21269;-72
2021/06/29 10:23:50;;;;;;;;;;;;;;;26.22;58.84;100647.67;1722091;82;20150;-72
2021/06/29 10:26:16;;;;;;;;;;;;;;;26.23;58.86;100649.84;1718392;82;20184;-72
2021/06/29 10:28:42;;;;;;;;;;;;;;;26.22;58.89;100643.48;1738574;80;20152;-72
2021/06/29 10:31:10;;;;;;;;;;;;;;;26.23;58.90;100636.71;1738513;80;20140;-72
2021/06/29 10:33:36;;;;;;;;;;;;;;;26.24;58.93;100636.13;1706433;82;20929;-72
2021/06/29 10:36:02;;;;;;;;;;;;;;;26.24;58.96;100634.73;1731523;82;20310;-72
2021/06/29 10:38:28;;;;;;;;;;;;;;;26.26;59.01;100629.63;1769322;79;20145;-72
2021/06/29 10:40:54;;;;;;;;;;;;;;;26.30;59.06;100634.70;1770781;80;20152;-72
2021/06/29 10:43:20;;;;;;;;;;;;;;;26.31;59.12;100631.53;1740604;80;20194;-71
2021/06/29 10:45:52;;;;;;;;;;;;;;;26.35;59.17;100634.44;1737503;80;21035;-71
2021/06/29 10:48:25;;;;;;;;;;;;;;;26.39;59.20;100628.36;1754839;80;20156;-71
2021/06/29 10:50:53;;;;;;;;;;;;;;;26.44;59.23;100629.45;1741316;81;20101;-72
2021/06/29 10:53:33;;;;;;;;;;;;;;;26.50;59.28;100621.62;1716335;82;20146;-71
2021/06/29 10:56:00;;;;;;;;;;;;;;;26.56;59.32;100626.59;1714314;81;20144;-71
2021/06/29 10:58:35;;;;;;;;;;;;;;;26.62;59.34;100622.91;1729360;81;20902;-71
2021/06/29 11:01:22;;;;;;;;;;;;;;;26.67;59.33;100621.23;1711080;82;20194;-72
2021/06/29 11:03:51;;;;;;;;;;;;;;;26.72;59.29;100618.17;1679302;83;20448;-66
2021/06/29 11:06:47;;;;;;;;;;;;;;;26.77;59.30;100615.92;1712164;82;20227;-72
2021/06/29 11:09:19;;;;;;;;;;;;;;;26.80;59.24;100613.78;1760787;79;20167;-72
2021/06/29 11:12:21;;;;;;;;;;;;;;;26.85;59.18;100614.13;1741484;81;21143;-65
2021/06/29 11:14:49;;;;;;;;;;;;;;;26.86;59.16;100608.77;1746200;81;20203;-61
2021/06/29 11:17:17;;;;;;;;;;;;;;;26.87;59.11;100603.97;1746371;80;20199;-63
2021/06/29 11:20:02;;;;;;;;;;;;;;;26.89;59.04;100604.42;1745532;81;20428;-66
2021/06/29 11:22:51;;;;;;;;;;;;;;;26.90;58.96;100600.47;1747185;81;20414;-65
2021/06/29 11:25:32;;;;;;;;;;;;;;;26.89;58.91;100596.86;1735490;81;21274;-66
2021/06/29 11:28:16;;;;;;;;;;;;;;;26.85;58.88;100594.58;1710035;83;20149;-66
2021/06/29 11:30:55;;;;;;;;;;;;;;;26.82;58.93;100586.88;1712984;82;20422;-66
2021/06/29 11:33:43;;;;;;;;;;;;;;;26.79;58.97;100582.05;1771489;81;20379;-66
2021/06/29 11:36:38;;;;;;;;;;;;;;;26.75;59.00;100583.36;1772191;81;20168;-66
2021/06/29 11:39:21;;;;;;;;;;;;;;;26.74;59.02;100587.32;1777060;80;21932;-66
2021/06/29 11:41:55;;;;;;;;;;;;;;;26.72;59.07;100586.08;1771587;81;20438;-68
2021/06/29 11:44:25;;;;;;;;;;;;;;;26.69;59.10;100574.26;1758123;81;20410;-66
2021/06/29 11:47:05;;;;;;;;;;;;;;;26.66;59.13;100571.59;1716744;82;21887;-65
2021/06/29 11:49:36;;;;;;;;;;;;;;;26.66;59.17;100570.78;1739492;82;20151;-65
2021/06/29 11:52:17;;;;;;;;;;;;;;;26.65;59.15;100573.38;1739924;82;21159;-66
2021/06/29 11:54:47;;;;;;;;;;;;;;;26.63;59.19;100568.14;1704689;83;20232;-65
2021/06/29 11:57:22;;;;;;;;;;;;;;;26.62;59.22;100560.13;1775256;80;20442;-65
2021/06/29 12:00:06;;;;;;;;;;;;;;;26.61;59.32;100563.50;1744004;81;20273;-65
2021/06/29 12:02:33;;;;;;;;;;;;;;;26.60;59.38;100559.11;1762307;80;20158;-66
2021/06/29 12:05:15;;;;;;;;;;;;;;;26.60;59.47;100564.70;1724938;81;21128;-65
2021/06/29 12:07:42;;;;;;;;;;;;;;;26.58;59.50;100555.05;1731315;82;20199;-65
2021/06/29 12:10:11;;;;;;;;;;;;;;;26.58;59.57;100553.08;1731957;82;20175;-66
2021/06/29 12:12:39;;;;;;;;;;;;;;;26.56;59.64;100552.65;1733922;81;20142;-65
2021/06/29 12:15:14;;;;;;;;;;;;;;;26.56;59.70;100547.65;1733213;81;20447;-62
2021/06/29 12:17:49;;;;;;;;;;;;;;;26.59;59.72;100546.33;1741116;81;21178;-62
2021/06/29 12:20:16;;;;;;;;;;;;;;;26.62;59.75;100544.19;1737555;81;20171;-63
2021/06/29 12:22:43;;;;;;;;;;;;;;;26.66;59.82;100533.11;1734997;81;20195;-62
2021/06/29 12:25:12;;;;;;;;;;;;;;;26.68;59.89;100527.98;1743025;81;20163;-64
2021/06/29 12:27:43;;;;;;;;;;;;;;;26.72;59.95;100525.49;1732441;81;20202;-63
2021/06/29 12:30:25;;;;;;;;;;;;;;;26.76;60.01;100522.19;1737889;81;21145;-63
2021/06/29 12:32:50;;;;;;;;;;;;;;;26.82;60.01;100517.91;1733931;81;20149;-62
2021/06/29 12:35:18;;;;;;;;;;;;;;;26.87;60.01;100518.24;1738206;81;20261;-62
2021/06/29 12:38:02;;;;;;;;;;;;;;;26.93;60.00;100510.39;1721589;81;20559;-62
2021/06/29 12:40:29;;;;;;;;;;;;;;;26.99;60.02;100508.93;1730471;82;20222;-64
2021/06/29 12:42:55;;;;;;;;;;;;;;;27.03;59.98;100517.57;1731270;81;21142;-63